sensor_id;sensor_type;location;lat;lon;timestamp;P1;durP1;ratioP1;P2;durP2;ratioP2
14394;SDS011;7282;49.204;10.652;2023-01-16T00:01:00;3.87;;;2.70;;
14394;SDS011;7282;49.204;10.652;2023-01-16T00:03:27;3.40;;;2.23;;
14394;SDS011;7282;49.204;10.652;2023-01-16T00:05:53;6.50;;;3.53;;
14394;SDS011;7282;49.204;10.652;2023-01-16T00:08:20;4.47;;;2.60;;
14394;SDS011;7282;49.204;10.652;2023-01-16T00:10:47;2.73;;;2.53;;
14394;SDS011;7282;49.204;10.652;2023-01-16T00:13:13;2.87;;;2.57;;
14394;SDS011;7282;49.204;10.652;2023-01-16T00:15:44;3.33;;;2.10;;
14394;SDS011;7282;49.204;10.652;2023-01-16T00:18:11;3.10;;;2.30;;
14394;SDS011;7282;49.204;10.652;2023-01-16T00:20:38;5.17;;;2.57;;
14394;SDS011;7282;49.204;10.652;2023-01-16T00:23:04;3.70;;;2.37;;
14394;SDS011;7282;49.204;10.652;2023-01-16T00:25:31;2.53;;;2.30;;
14394;SDS011;7282;49.204;10.652;2023-01-16T00:27:58;2.57;;;2.00;;
14394;SDS011;7282;49.204;10.652;2023-01-16T00:30:24;5.70;;;2.70;;
14394;SDS011;7282;49.204;10.652;2023-01-16T00:32:51;2.23;;;2.03;;
14394;SDS011;7282;49.204;10.652;2023-01-16T00:35:18;2.33;;;1.97;;
14394;SDS011;7282;49.204;10.652;2023-01-16T00:37:45;2.73;;;1.80;;
14394;SDS011;7282;49.204;10.652;2023-01-16T00:40:11;2.80;;;1.90;;
14394;SDS011;7282;49.204;10.652;2023-01-16T00:42:38;3.73;;;2.00;;
14394;SDS011;7282;49.204;10.652;2023-01-16T00:45:05;4.33;;;2.30;;
14394;SDS011;7282;49.204;10.652;2023-01-16T00:47:32;3.23;;;2.00;;
14394;SDS011;7282;49.204;10.652;2023-01-16T00:49:59;2.03;;;1.83;;
14394;SDS011;7282;49.204;10.652;2023-01-16T00:52:25;2.67;;;1.80;;
14394;SDS011;7282;49.204;10.652;2023-01-16T00:54:52;2.73;;;2.03;;
14394;SDS011;7282;49.204;10.652;2023-01-16T00:57:19;2.20;;;2.00;;
14394;SDS011;7282;49.204;10.652;2023-01-16T00:59:46;1.97;;;1.80;;
14394;SDS011;7282;49.204;10.652;2023-01-16T01:02:12;3.10;;;2.00;;
14394;SDS011;7282;49.204;10.652;2023-01-16T01:04:39;3.23;;;1.83;;
14394;SDS011;7282;49.204;10.652;2023-01-16T01:07:06;3.10;;;1.93;;
14394;SDS011;7282;49.204;10.652;2023-01-16T01:09:33;3.33;;;1.67;;
14394;SDS011;7282;49.204;10.652;2023-01-16T01:12:00;4.27;;;1.90;;
14394;SDS011;7282;49.204;10.652;2023-01-16T01:14:27;2.77;;;1.80;;
14394;SDS011;7282;49.204;10.652;2023-01-16T01:16:53;3.67;;;2.07;;
14394;SDS011;7282;49.204;10.652;2023-01-16T01:19:20;4.87;;;1.80;;
14394;SDS011;7282;49.204;10.652;2023-01-16T01:21:47;3.30;;;1.63;;
14394;SDS011;7282;49.204;10.652;2023-01-16T01:24:14;3.17;;;2.43;;
14394;SDS011;7282;49.204;10.652;2023-01-16T01:26:40;3.33;;;2.17;;
14394;SDS011;7282;49.204;10.652;2023-01-16T01:29:07;2.17;;;1.70;;
14394;SDS011;7282;49.204;10.652;2023-01-16T01:31:34;4.67;;;2.00;;
14394;SDS011;7282;49.204;10.652;2023-01-16T01:34:02;3.33;;;2.10;;
14394;SDS011;7282;49.204;10.652;2023-01-16T01:36:29;4.33;;;1.87;;
14394;SDS011;7282;49.204;10.652;2023-01-16T01:38:55;2.47;;;1.83;;
14394;SDS011;7282;49.204;10.652;2023-01-16T01:41:22;4.13;;;1.90;;
14394;SDS011;7282;49.204;10.652;2023-01-16T01:43:50;3.13;;;1.83;;
14394;SDS011;7282;49.204;10.652;2023-01-16T01:48:59;3.07;;;1.73;;
14394;SDS011;7282;49.204;10.652;2023-01-16T01:51:30;2.67;;;1.80;;
14394;SDS011;7282;49.204;10.652;2023-01-16T01:53:59;1.83;;;1.60;;
14394;SDS011;7282;49.204;10.652;2023-01-16T01:56:34;2.57;;;1.60;;
14394;SDS011;7282;49.204;10.652;2023-01-16T01:58:58;1.70;;;1.60;;
14394;SDS011;7282;49.204;10.652;2023-01-16T02:01:26;2.63;;;1.73;;
14394;SDS011;7282;49.204;10.652;2023-01-16T02:03:58;1.53;;;1.43;;
14394;SDS011;7282;49.204;10.652;2023-01-16T02:06:25;4.00;;;1.80;;
14394;SDS011;7282;49.204;10.652;2023-01-16T02:08:51;2.40;;;1.60;;
14394;SDS011;7282;49.204;10.652;2023-01-16T02:11:20;2.60;;;1.40;;
14394;SDS011;7282;49.204;10.652;2023-01-16T02:13:49;2.77;;;1.67;;
14394;SDS011;7282;49.204;10.652;2023-01-16T02:16:16;3.77;;;1.77;;
14394;SDS011;7282;49.204;10.652;2023-01-16T02:19:01;4.47;;;1.80;;
14394;SDS011;7282;49.204;10.652;2023-01-16T02:22:04;1.97;;;1.87;;
14394;SDS011;7282;49.204;10.652;2023-01-16T02:29:44;5.27;;;2.10;;
14394;SDS011;7282;49.204;10.652;2023-01-16T02:32:14;4.47;;;2.07;;
14394;SDS011;7282;49.204;10.652;2023-01-16T02:42:37;3.60;;;1.80;;
14394;SDS011;7282;49.204;10.652;2023-01-16T02:45:10;3.73;;;1.60;;
14394;SDS011;7282;49.204;10.652;2023-01-16T02:47:43;3.53;;;1.67;;
14394;SDS011;7282;49.204;10.652;2023-01-16T02:53:07;4.10;;;1.83;;
14394;SDS011;7282;49.204;10.652;2023-01-16T02:57:51;2.23;;;1.67;;
14394;SDS011;7282;49.204;10.652;2023-01-16T03:00:19;3.63;;;1.70;;
14394;SDS011;7282;49.204;10.652;2023-01-16T03:02:46;2.90;;;1.80;;
14394;SDS011;7282;49.204;10.652;2023-01-16T03:05:13;2.33;;;1.70;;
14394;SDS011;7282;49.204;10.652;2023-01-16T03:07:44;2.33;;;1.70;;
14394;SDS011;7282;49.204;10.652;2023-01-16T03:10:18;2.13;;;1.70;;
14394;SDS011;7282;49.204;10.652;2023-01-16T03:12:59;1.60;;;1.50;;
14394;SDS011;7282;49.204;10.652;2023-01-16T03:18:08;1.97;;;1.53;;
14394;SDS011;7282;49.204;10.652;2023-01-16T03:20:38;3.97;;;2.80;;
14394;SDS011;7282;49.204;10.652;2023-01-16T03:25:48;8.77;;;5.87;;
14394;SDS011;7282;49.204;10.652;2023-01-16T03:28:20;8.63;;;6.60;;
14394;SDS011;7282;49.204;10.652;2023-01-16T03:33:35;3.23;;;2.90;;
14394;SDS011;7282;49.204;10.652;2023-01-16T03:35:45;3.00;;;2.27;;
14394;SDS011;7282;49.204;10.652;2023-01-16T03:38:09;2.37;;;2.17;;
14394;SDS011;7282;49.204;10.652;2023-01-16T03:40:40;3.00;;;2.27;;
14394;SDS011;7282;49.204;10.652;2023-01-16T03:43:10;4.27;;;2.53;;
14394;SDS011;7282;49.204;10.652;2023-01-16T03:45:38;8.00;;;3.50;;
14394;SDS011;7282;49.204;10.652;2023-01-16T03:48:10;4.60;;;2.50;;
14394;SDS011;7282;49.204;10.652;2023-01-16T03:50:36;3.07;;;2.10;;
14394;SDS011;7282;49.204;10.652;2023-01-16T03:53:06;4.10;;;2.43;;
14394;SDS011;7282;49.204;10.652;2023-01-16T03:55:37;2.30;;;2.10;;
14394;SDS011;7282;49.204;10.652;2023-01-16T03:58:07;3.50;;;2.37;;
14394;SDS011;7282;49.204;10.652;2023-01-16T04:00:39;3.60;;;2.20;;
14394;SDS011;7282;49.204;10.652;2023-01-16T04:03:10;4.57;;;2.50;;
14394;SDS011;7282;49.204;10.652;2023-01-16T04:05:49;3.53;;;2.80;;
14394;SDS011;7282;49.204;10.652;2023-01-16T04:08:14;3.80;;;2.33;;
14394;SDS011;7282;49.204;10.652;2023-01-16T04:10:38;3.33;;;2.60;;
14394;SDS011;7282;49.204;10.652;2023-01-16T04:13:11;2.63;;;2.43;;
14394;SDS011;7282;49.204;10.652;2023-01-16T04:15:35;6.90;;;3.30;;
14394;SDS011;7282;49.204;10.652;2023-01-16T04:18:02;3.03;;;2.70;;
14394;SDS011;7282;49.204;10.652;2023-01-16T04:20:29;4.23;;;2.90;;
14394;SDS011;7282;49.204;10.652;2023-01-16T04:22:56;4.50;;;2.73;;
14394;SDS011;7282;49.204;10.652;2023-01-16T04:25:23;2.43;;;2.23;;
14394;SDS011;7282;49.204;10.652;2023-01-16T04:27:52;2.70;;;2.50;;
14394;SDS011;7282;49.204;10.652;2023-01-16T04:30:19;6.28;;;2.87;;
14394;SDS011;7282;49.204;10.652;2023-01-16T04:32:45;6.30;;;3.20;;
14394;SDS011;7282;49.204;10.652;2023-01-16T04:35:12;4.63;;;3.23;;
14394;SDS011;7282;49.204;10.652;2023-01-16T04:37:39;4.37;;;3.00;;
14394;SDS011;7282;49.204;10.652;2023-01-16T04:40:06;7.93;;;2.70;;
14394;SDS011;7282;49.204;10.652;2023-01-16T04:42:34;2.97;;;2.57;;
14394;SDS011;7282;49.204;10.652;2023-01-16T04:45:02;3.93;;;2.40;;
14394;SDS011;7282;49.204;10.652;2023-01-16T04:47:29;2.50;;;2.30;;
14394;SDS011;7282;49.204;10.652;2023-01-16T04:49:55;2.63;;;2.10;;
14394;SDS011;7282;49.204;10.652;2023-01-16T04:52:22;3.57;;;2.63;;
14394;SDS011;7282;49.204;10.652;2023-01-16T04:54:49;3.83;;;2.50;;
14394;SDS011;7282;49.204;10.652;2023-01-16T04:57:15;3.67;;;2.70;;
14394;SDS011;7282;49.204;10.652;2023-01-16T04:59:42;2.93;;;1.90;;
14394;SDS011;7282;49.204;10.652;2023-01-16T05:02:09;2.23;;;2.03;;
14394;SDS011;7282;49.204;10.652;2023-01-16T05:04:36;3.07;;;2.13;;
14394;SDS011;7282;49.204;10.652;2023-01-16T05:07:03;3.73;;;2.07;;
14394;SDS011;7282;49.204;10.652;2023-01-16T05:09:30;1.97;;;1.77;;
14394;SDS011;7282;49.204;10.652;2023-01-16T05:11:56;3.63;;;2.00;;
14394;SDS011;7282;49.204;10.652;2023-01-16T05:14:23;6.60;;;2.73;;
14394;SDS011;7282;49.204;10.652;2023-01-16T05:16:50;4.20;;;2.93;;
14394;SDS011;7282;49.204;10.652;2023-01-16T05:19:16;3.73;;;3.23;;
14394;SDS011;7282;49.204;10.652;2023-01-16T05:21:43;5.23;;;2.80;;
14394;SDS011;7282;49.204;10.652;2023-01-16T05:24:10;7.40;;;3.60;;
14394;SDS011;7282;49.204;10.652;2023-01-16T05:26:37;7.13;;;3.73;;
14394;SDS011;7282;49.204;10.652;2023-01-16T05:29:03;6.00;;;3.17;;
14394;SDS011;7282;49.204;10.652;2023-01-16T05:31:30;2.60;;;2.40;;
14394;SDS011;7282;49.204;10.652;2023-01-16T05:33:57;6.03;;;3.30;;
14394;SDS011;7282;49.204;10.652;2023-01-16T05:36:23;5.17;;;2.58;;
14394;SDS011;7282;49.204;10.652;2023-01-16T05:38:50;2.95;;;2.22;;
14394;SDS011;7282;49.204;10.652;2023-01-16T05:41:17;4.07;;;2.00;;
14394;SDS011;7282;49.204;10.652;2023-01-16T05:43:44;3.03;;;2.00;;
14394;SDS011;7282;49.204;10.652;2023-01-16T05:46:11;3.33;;;2.53;;
14394;SDS011;7282;49.204;10.652;2023-01-16T05:48:37;2.93;;;2.10;;
14394;SDS011;7282;49.204;10.652;2023-01-16T05:51:05;4.23;;;2.40;;
14394;SDS011;7282;49.204;10.652;2023-01-16T05:53:32;5.43;;;2.13;;
14394;SDS011;7282;49.204;10.652;2023-01-16T05:55:59;10.32;;;3.42;;
14394;SDS011;7282;49.204;10.652;2023-01-16T05:58:27;7.30;;;3.03;;
14394;SDS011;7282;49.204;10.652;2023-01-16T06:00:53;4.20;;;2.43;;
14394;SDS011;7282;49.204;10.652;2023-01-16T06:03:20;7.50;;;2.70;;
14394;SDS011;7282;49.204;10.652;2023-01-16T06:05:47;3.90;;;2.53;;
14394;SDS011;7282;49.204;10.652;2023-01-16T06:08:14;2.70;;;2.50;;
14394;SDS011;7282;49.204;10.652;2023-01-16T06:10:41;4.30;;;2.23;;
14394;SDS011;7282;49.204;10.652;2023-01-16T06:13:09;3.03;;;2.17;;
14394;SDS011;7282;49.204;10.652;2023-01-16T06:15:36;2.97;;;2.50;;
14394;SDS011;7282;49.204;10.652;2023-01-16T06:18:03;2.30;;;2.10;;
14394;SDS011;7282;49.204;10.652;2023-01-16T06:20:30;6.00;;;2.20;;
14394;SDS011;7282;49.204;10.652;2023-01-16T06:22:57;2.60;;;2.10;;
14394;SDS011;7282;49.204;10.652;2023-01-16T06:25:23;3.87;;;2.07;;
14394;SDS011;7282;49.204;10.652;2023-01-16T06:27:50;2.73;;;2.37;;
14394;SDS011;7282;49.204;10.652;2023-01-16T06:30:18;5.20;;;2.30;;
14394;SDS011;7282;49.204;10.652;2023-01-16T06:32:47;4.80;;;2.27;;
14394;SDS011;7282;49.204;10.652;2023-01-16T06:35:16;4.67;;;2.23;;
14394;SDS011;7282;49.204;10.652;2023-01-16T06:37:42;4.12;;;2.17;;
14394;SDS011;7282;49.204;10.652;2023-01-16T06:40:09;4.13;;;1.97;;
14394;SDS011;7282;49.204;10.652;2023-01-16T06:42:36;4.97;;;1.90;;
14394;SDS011;7282;49.204;10.652;2023-01-16T06:45:03;2.50;;;1.90;;
14394;SDS011;7282;49.204;10.652;2023-01-16T06:47:30;4.80;;;2.30;;
14394;SDS011;7282;49.204;10.652;2023-01-16T06:49:57;3.43;;;2.00;;
14394;SDS011;7282;49.204;10.652;2023-01-16T06:52:24;4.30;;;2.00;;
14394;SDS011;7282;49.204;10.652;2023-01-16T06:54:51;3.17;;;2.53;;
14394;SDS011;7282;49.204;10.652;2023-01-16T06:57:17;3.58;;;2.05;;
14394;SDS011;7282;49.204;10.652;2023-01-16T06:59:44;5.27;;;2.87;;
14394;SDS011;7282;49.204;10.652;2023-01-16T07:02:11;4.97;;;2.58;;
14394;SDS011;7282;49.204;10.652;2023-01-16T07:04:37;4.23;;;2.47;;
14394;SDS011;7282;49.204;10.652;2023-01-16T07:07:04;2.83;;;1.90;;
14394;SDS011;7282;49.204;10.652;2023-01-16T07:09:31;2.23;;;2.00;;
14394;SDS011;7282;49.204;10.652;2023-01-16T07:11:58;2.02;;;1.77;;
14394;SDS011;7282;49.204;10.652;2023-01-16T07:14:25;3.73;;;2.10;;
14394;SDS011;7282;49.204;10.652;2023-01-16T07:17:10;2.00;;;1.90;;
14394;SDS011;7282;49.204;10.652;2023-01-16T07:19:56;3.25;;;2.30;;
14394;SDS011;7282;49.204;10.652;2023-01-16T07:22:40;4.72;;;2.10;;
14394;SDS011;7282;49.204;10.652;2023-01-16T07:25:11;4.10;;;2.70;;
14394;SDS011;7282;49.204;10.652;2023-01-16T07:27:38;10.37;;;3.70;;
14394;SDS011;7282;49.204;10.652;2023-01-16T07:30:05;5.67;;;2.98;;
14394;SDS011;7282;49.204;10.652;2023-01-16T07:32:32;6.50;;;3.00;;
14394;SDS011;7282;49.204;10.652;2023-01-16T07:34:59;7.00;;;3.40;;
14394;SDS011;7282;49.204;10.652;2023-01-16T07:37:26;5.23;;;3.03;;
14394;SDS011;7282;49.204;10.652;2023-01-16T07:39:52;4.53;;;2.60;;
14394;SDS011;7282;49.204;10.652;2023-01-16T07:42:19;4.20;;;2.13;;
14394;SDS011;7282;49.204;10.652;2023-01-16T07:44:46;3.47;;;2.10;;
14394;SDS011;7282;49.204;10.652;2023-01-16T07:47:12;2.17;;;1.97;;
14394;SDS011;7282;49.204;10.652;2023-01-16T07:49:40;2.50;;;1.90;;
14394;SDS011;7282;49.204;10.652;2023-01-16T07:52:06;3.53;;;2.10;;
14394;SDS011;7282;49.204;10.652;2023-01-16T07:54:33;2.63;;;1.70;;
14394;SDS011;7282;49.204;10.652;2023-01-16T07:57:02;1.60;;;1.50;;
14394;SDS011;7282;49.204;10.652;2023-01-16T07:59:28;2.20;;;1.80;;
14394;SDS011;7282;49.204;10.652;2023-01-16T08:01:55;2.20;;;1.77;;
14394;SDS011;7282;49.204;10.652;2023-01-16T08:04:22;3.33;;;1.80;;
14394;SDS011;7282;49.204;10.652;2023-01-16T08:06:49;4.13;;;1.90;;
14394;SDS011;7282;49.204;10.652;2023-01-16T08:09:15;1.50;;;1.40;;
14394;SDS011;7282;49.204;10.652;2023-01-16T08:11:42;2.87;;;1.67;;
14394;SDS011;7282;49.204;10.652;2023-01-16T08:14:11;2.93;;;1.70;;
14394;SDS011;7282;49.204;10.652;2023-01-16T08:16:37;2.77;;;1.77;;
14394;SDS011;7282;49.204;10.652;2023-01-16T08:19:04;6.07;;;2.60;;
14394;SDS011;7282;49.204;10.652;2023-01-16T08:21:31;3.40;;;2.23;;
14394;SDS011;7282;49.204;10.652;2023-01-16T08:23:57;7.93;;;3.10;;
14394;SDS011;7282;49.204;10.652;2023-01-16T08:26:24;3.40;;;2.33;;
14394;SDS011;7282;49.204;10.652;2023-01-16T08:28:51;4.50;;;1.90;;
14394;SDS011;7282;49.204;10.652;2023-01-16T08:31:18;3.93;;;2.10;;
14394;SDS011;7282;49.204;10.652;2023-01-16T08:33:45;5.83;;;2.17;;
14394;SDS011;7282;49.204;10.652;2023-01-16T08:36:14;5.83;;;2.07;;
14394;SDS011;7282;49.204;10.652;2023-01-16T08:38:42;5.33;;;1.87;;
14394;SDS011;7282;49.204;10.652;2023-01-16T08:41:09;8.40;;;2.90;;
14394;SDS011;7282;49.204;10.652;2023-01-16T08:43:38;5.93;;;2.13;;
14394;SDS011;7282;49.204;10.652;2023-01-16T08:46:23;8.57;;;1.87;;
14394;SDS011;7282;49.204;10.652;2023-01-16T08:49:09;7.13;;;2.17;;
14394;SDS011;7282;49.204;10.652;2023-01-16T08:51:55;4.93;;;1.83;;
14394;SDS011;7282;49.204;10.652;2023-01-16T08:54:22;12.17;;;3.20;;
14394;SDS011;7282;49.204;10.652;2023-01-16T08:56:48;4.63;;;2.07;;
14394;SDS011;7282;49.204;10.652;2023-01-16T08:59:15;3.20;;;1.93;;
14394;SDS011;7282;49.204;10.652;2023-01-16T09:01:42;5.27;;;2.10;;
14394;SDS011;7282;49.204;10.652;2023-01-16T09:04:09;3.80;;;1.80;;
14394;SDS011;7282;49.204;10.652;2023-01-16T09:06:36;3.47;;;2.00;;
14394;SDS011;7282;49.204;10.652;2023-01-16T09:09:04;4.63;;;2.50;;
14394;SDS011;7282;49.204;10.652;2023-01-16T09:11:35;3.50;;;1.63;;
14394;SDS011;7282;49.204;10.652;2023-01-16T09:14:18;2.13;;;1.60;;
14394;SDS011;7282;49.204;10.652;2023-01-16T09:16:45;4.30;;;2.03;;
14394;SDS011;7282;49.204;10.652;2023-01-16T09:19:12;5.03;;;1.97;;
14394;SDS011;7282;49.204;10.652;2023-01-16T09:21:38;5.30;;;2.10;;
14394;SDS011;7282;49.204;10.652;2023-01-16T09:24:05;3.10;;;1.70;;
14394;SDS011;7282;49.204;10.652;2023-01-16T09:26:33;6.77;;;2.23;;
14394;SDS011;7282;49.204;10.652;2023-01-16T09:29:00;5.60;;;1.90;;
14394;SDS011;7282;49.204;10.652;2023-01-16T09:31:26;2.03;;;1.80;;
14394;SDS011;7282;49.204;10.652;2023-01-16T09:33:53;3.30;;;1.50;;
14394;SDS011;7282;49.204;10.652;2023-01-16T09:36:21;4.03;;;1.70;;
14394;SDS011;7282;49.204;10.652;2023-01-16T09:38:47;2.93;;;2.13;;
14394;SDS011;7282;49.204;10.652;2023-01-16T09:41:15;1.50;;;1.40;;
14394;SDS011;7282;49.204;10.652;2023-01-16T09:44:01;1.90;;;1.33;;
14394;SDS011;7282;49.204;10.652;2023-01-16T09:46:29;3.03;;;1.70;;
14394;SDS011;7282;49.204;10.652;2023-01-16T09:49:01;2.13;;;1.50;;
14394;SDS011;7282;49.204;10.652;2023-01-16T09:51:30;1.40;;;1.30;;
14394;SDS011;7282;49.204;10.652;2023-01-16T09:53:58;4.43;;;1.67;;
14394;SDS011;7282;49.204;10.652;2023-01-16T09:56:44;4.10;;;2.50;;
14394;SDS011;7282;49.204;10.652;2023-01-16T09:59:37;6.20;;;1.77;;
14394;SDS011;7282;49.204;10.652;2023-01-16T10:04:46;1.80;;;1.67;;
14394;SDS011;7282;49.204;10.652;2023-01-16T10:07:20;4.73;;;2.17;;
14394;SDS011;7282;49.204;10.652;2023-01-16T10:09:51;2.20;;;1.30;;
14394;SDS011;7282;49.204;10.652;2023-01-16T10:12:16;1.73;;;1.40;;
14394;SDS011;7282;49.204;10.652;2023-01-16T10:17:39;4.33;;;1.90;;
14394;SDS011;7282;49.204;10.652;2023-01-16T10:20:12;2.40;;;1.63;;
14394;SDS011;7282;49.204;10.652;2023-01-16T10:22:39;2.70;;;1.60;;
14394;SDS011;7282;49.204;10.652;2023-01-16T10:25:08;5.03;;;2.13;;
14394;SDS011;7282;49.204;10.652;2023-01-16T10:27:46;3.00;;;1.57;;
14394;SDS011;7282;49.204;10.652;2023-01-16T10:30:17;2.97;;;2.00;;
14394;SDS011;7282;49.204;10.652;2023-01-16T10:33:00;2.20;;;2.00;;
14394;SDS011;7282;49.204;10.652;2023-01-16T10:35:27;1.57;;;1.23;;
14394;SDS011;7282;49.204;10.652;2023-01-16T10:37:54;1.67;;;1.57;;
14394;SDS011;7282;49.204;10.652;2023-01-16T10:40:24;2.40;;;1.60;;
14394;SDS011;7282;49.204;10.652;2023-01-16T10:42:58;4.47;;;1.60;;
14394;SDS011;7282;49.204;10.652;2023-01-16T10:45:41;2.70;;;1.40;;
14394;SDS011;7282;49.204;10.652;2023-01-16T10:48:27;6.80;;;1.60;;
14394;SDS011;7282;49.204;10.652;2023-01-16T10:51:14;3.90;;;2.53;;
14394;SDS011;7282;49.204;10.652;2023-01-16T10:53:40;8.27;;;2.50;;
14394;SDS011;7282;49.204;10.652;2023-01-16T10:56:07;8.33;;;3.20;;
14394;SDS011;7282;49.204;10.652;2023-01-16T10:58:35;2.80;;;1.60;;
14394;SDS011;7282;49.204;10.652;2023-01-16T11:01:05;5.53;;;1.70;;
14394;SDS011;7282;49.204;10.652;2023-01-16T11:03:32;3.53;;;1.57;;
14394;SDS011;7282;49.204;10.652;2023-01-16T11:06:06;2.63;;;1.40;;
14394;SDS011;7282;49.204;10.652;2023-01-16T11:08:33;3.07;;;1.70;;
14394;SDS011;7282;49.204;10.652;2023-01-16T11:11:01;1.23;;;1.20;;
14394;SDS011;7282;49.204;10.652;2023-01-16T11:13:28;1.50;;;1.40;;
14394;SDS011;7282;49.204;10.652;2023-01-16T11:19:43;1.60;;;1.07;;
14394;SDS011;7282;49.204;10.652;2023-01-16T11:21:32;2.73;;;1.63;;
14394;SDS011;7282;49.204;10.652;2023-01-16T11:24:13;1.37;;;1.20;;
14394;SDS011;7282;49.204;10.652;2023-01-16T11:26:33;1.50;;;1.33;;
14394;SDS011;7282;49.204;10.652;2023-01-16T11:29:00;1.70;;;1.60;;
14394;SDS011;7282;49.204;10.652;2023-01-16T11:31:28;3.07;;;2.40;;
14394;SDS011;7282;49.204;10.652;2023-01-16T11:33:58;2.17;;;1.70;;
14394;SDS011;7282;49.204;10.652;2023-01-16T11:36:31;3.53;;;1.80;;
14394;SDS011;7282;49.204;10.652;2023-01-16T11:38:58;1.53;;;1.40;;
14394;SDS011;7282;49.204;10.652;2023-01-16T11:41:29;1.27;;;1.17;;
14394;SDS011;7282;49.204;10.652;2023-01-16T11:44:32;1.43;;;1.33;;
14394;SDS011;7282;49.204;10.652;2023-01-16T11:46:49;2.30;;;1.53;;
14394;SDS011;7282;49.204;10.652;2023-01-16T11:49:18;4.83;;;1.63;;
14394;SDS011;7282;49.204;10.652;2023-01-16T11:51:48;1.63;;;1.50;;
14394;SDS011;7282;49.204;10.652;2023-01-16T11:54:15;2.50;;;1.47;;
14394;SDS011;7282;49.204;10.652;2023-01-16T11:56:46;2.23;;;1.70;;
14394;SDS011;7282;49.204;10.652;2023-01-16T12:02:01;1.17;;;1.00;;
14394;SDS011;7282;49.204;10.652;2023-01-16T12:04:46;1.60;;;1.50;;
14394;SDS011;7282;49.204;10.652;2023-01-16T12:07:19;1.63;;;1.53;;
14394;SDS011;7282;49.204;10.652;2023-01-16T12:09:54;1.93;;;1.60;;
14394;SDS011;7282;49.204;10.652;2023-01-16T12:15:16;2.53;;;1.57;;
14394;SDS011;7282;49.204;10.652;2023-01-16T12:31:35;1.17;;;1.13;;
14394;SDS011;7282;49.204;10.652;2023-01-16T12:34:20;1.90;;;1.30;;
14394;SDS011;7282;49.204;10.652;2023-01-16T12:45:07;1.20;;;1.10;;
14394;SDS011;7282;49.204;10.652;2023-01-16T12:50:08;1.57;;;1.47;;
14394;SDS011;7282;49.204;10.652;2023-01-16T12:52:41;1.60;;;1.50;;
14394;SDS011;7282;49.204;10.652;2023-01-16T12:57:59;1.43;;;1.33;;
14394;SDS011;7282;49.204;10.652;2023-01-16T13:00:25;1.63;;;1.30;;
14394;SDS011;7282;49.204;10.652;2023-01-16T13:02:57;1.57;;;1.40;;
14394;SDS011;7282;49.204;10.652;2023-01-16T13:05:29;4.17;;;1.90;;
14394;SDS011;7282;49.204;10.652;2023-01-16T13:07:55;3.00;;;1.90;;
14394;SDS011;7282;49.204;10.652;2023-01-16T13:10:27;2.53;;;2.10;;
14394;SDS011;7282;49.204;10.652;2023-01-16T13:13:17;2.93;;;1.73;;
14394;SDS011;7282;49.204;10.652;2023-01-16T13:15:54;2.07;;;1.60;;
14394;SDS011;7282;49.204;10.652;2023-01-16T13:18:25;1.77;;;1.60;;
14394;SDS011;7282;49.204;10.652;2023-01-16T13:20:54;1.67;;;1.57;;
14394;SDS011;7282;49.204;10.652;2023-01-16T13:23:30;2.20;;;1.63;;
14394;SDS011;7282;49.204;10.652;2023-01-16T13:25:54;1.70;;;1.60;;
14394;SDS011;7282;49.204;10.652;2023-01-16T13:28:36;1.50;;;1.40;;
14394;SDS011;7282;49.204;10.652;2023-01-16T13:31:03;1.50;;;1.40;;
14394;SDS011;7282;49.204;10.652;2023-01-16T13:33:35;1.60;;;1.50;;
14394;SDS011;7282;49.204;10.652;2023-01-16T13:38:57;1.60;;;1.50;;
14394;SDS011;7282;49.204;10.652;2023-01-16T13:41:34;1.40;;;1.30;;
14394;SDS011;7282;49.204;10.652;2023-01-16T13:44:15;2.40;;;1.40;;
14394;SDS011;7282;49.204;10.652;2023-01-16T13:47:05;1.63;;;1.43;;
14394;SDS011;7282;49.204;10.652;2023-01-16T13:49:33;2.60;;;1.80;;
14394;SDS011;7282;49.204;10.652;2023-01-16T13:52:00;1.73;;;1.43;;
14394;SDS011;7282;49.204;10.652;2023-01-16T13:54:38;1.77;;;1.50;;
14394;SDS011;7282;49.204;10.652;2023-01-16T13:57:08;1.53;;;1.40;;
14394;SDS011;7282;49.204;10.652;2023-01-16T13:59:29;1.80;;;1.60;;
14394;SDS011;7282;49.204;10.652;2023-01-16T14:01:56;2.43;;;2.13;;
14394;SDS011;7282;49.204;10.652;2023-01-16T14:06:56;1.97;;;1.63;;
14394;SDS011;7282;49.204;10.652;2023-01-16T14:12:34;5.47;;;1.80;;
14394;SDS011;7282;49.204;10.652;2023-01-16T14:15:14;4.57;;;1.80;;
14394;SDS011;7282;49.204;10.652;2023-01-16T14:18:01;2.30;;;1.37;;
14394;SDS011;7282;49.204;10.652;2023-01-16T14:23:12;1.53;;;1.27;;
14394;SDS011;7282;49.204;10.652;2023-01-16T14:25:53;1.30;;;1.20;;
14394;SDS011;7282;49.204;10.652;2023-01-16T14:28:20;1.87;;;1.60;;
14394;SDS011;7282;49.204;10.652;2023-01-16T14:30:47;1.67;;;1.40;;
14394;SDS011;7282;49.204;10.652;2023-01-16T14:33:16;3.73;;;3.40;;
14394;SDS011;7282;49.204;10.652;2023-01-16T14:35:48;1.40;;;1.30;;
14394;SDS011;7282;49.204;10.652;2023-01-16T14:38:15;1.30;;;1.20;;
14394;SDS011;7282;49.204;10.652;2023-01-16T14:40:45;1.67;;;1.20;;
14394;SDS011;7282;49.204;10.652;2023-01-16T14:43:29;1.60;;;1.50;;
14394;SDS011;7282;49.204;10.652;2023-01-16T14:52:08;1.93;;;1.70;;
14394;SDS011;7282;49.204;10.652;2023-01-16T14:54:54;1.90;;;1.70;;
14394;SDS011;7282;49.204;10.652;2023-01-16T14:57:40;2.27;;;2.07;;
14394;SDS011;7282;49.204;10.652;2023-01-16T15:03:00;1.90;;;1.70;;
14394;SDS011;7282;49.204;10.652;2023-01-16T15:06:08;2.00;;;1.80;;
14394;SDS011;7282;49.204;10.652;2023-01-16T15:07:59;1.77;;;1.53;;
14394;SDS011;7282;49.204;10.652;2023-01-16T15:13:13;1.53;;;1.43;;
14394;SDS011;7282;49.204;10.652;2023-01-16T15:15:42;3.27;;;1.90;;
14394;SDS011;7282;49.204;10.652;2023-01-16T15:18:12;1.77;;;1.57;;
14394;SDS011;7282;49.204;10.652;2023-01-16T15:20:57;1.50;;;1.40;;
14394;SDS011;7282;49.204;10.652;2023-01-16T15:23:43;1.50;;;1.40;;
14394;SDS011;7282;49.204;10.652;2023-01-16T15:26:12;1.97;;;1.67;;
14394;SDS011;7282;49.204;10.652;2023-01-16T15:28:58;2.83;;;1.80;;
14394;SDS011;7282;49.204;10.652;2023-01-16T15:31:29;3.73;;;1.80;;
14394;SDS011;7282;49.204;10.652;2023-01-16T15:36:41;2.33;;;2.13;;
14394;SDS011;7282;49.204;10.652;2023-01-16T15:41:38;1.97;;;1.80;;
14394;SDS011;7282;49.204;10.652;2023-01-16T15:44:24;1.60;;;1.50;;
14394;SDS011;7282;49.204;10.652;2023-01-16T15:49:50;2.10;;;1.67;;
14394;SDS011;7282;49.204;10.652;2023-01-16T15:52:16;1.50;;;1.40;;
14394;SDS011;7282;49.204;10.652;2023-01-16T15:54:43;1.80;;;1.70;;
14394;SDS011;7282;49.204;10.652;2023-01-16T15:57:16;2.00;;;1.80;;
14394;SDS011;7282;49.204;10.652;2023-01-16T15:59:53;1.60;;;1.50;;
14394;SDS011;7282;49.204;10.652;2023-01-16T16:02:19;1.87;;;1.77;;
14394;SDS011;7282;49.204;10.652;2023-01-16T16:04:46;1.87;;;1.70;;
14394;SDS011;7282;49.204;10.652;2023-01-16T16:07:14;1.50;;;1.40;;
14394;SDS011;7282;49.204;10.652;2023-01-16T16:09:42;2.00;;;1.80;;
14394;SDS011;7282;49.204;10.652;2023-01-16T16:12:10;3.27;;;1.90;;
14394;SDS011;7282;49.204;10.652;2023-01-16T16:14:37;2.10;;;1.90;;
14394;SDS011;7282;49.204;10.652;2023-01-16T16:17:30;2.20;;;1.77;;
14394;SDS011;7282;49.204;10.652;2023-01-16T16:25:36;2.40;;;2.20;;
14394;SDS011;7282;49.204;10.652;2023-01-16T16:28:04;2.93;;;2.00;;
14394;SDS011;7282;49.204;10.652;2023-01-16T16:30:32;2.67;;;2.20;;
14394;SDS011;7282;49.204;10.652;2023-01-16T16:32:58;2.20;;;1.90;;
14394;SDS011;7282;49.204;10.652;2023-01-16T16:35:27;1.67;;;1.57;;
14394;SDS011;7282;49.204;10.652;2023-01-16T16:37:54;2.17;;;1.97;;
14394;SDS011;7282;49.204;10.652;2023-01-16T16:40:21;1.87;;;1.77;;
14394;SDS011;7282;49.204;10.652;2023-01-16T16:42:56;2.23;;;1.87;;
14394;SDS011;7282;49.204;10.652;2023-01-16T16:45:20;2.00;;;1.90;;
14394;SDS011;7282;49.204;10.652;2023-01-16T16:47:54;3.40;;;2.10;;
14394;SDS011;7282;49.204;10.652;2023-01-16T16:52:48;4.40;;;2.20;;